sensor_id;sensor_type;location;lat;lon;timestamp;P1;durP1;ratioP1;P2;durP2;ratioP2
5890;SDS011;2971;52.420;7.080;2023-04-24T00:01:28;5.80;;;5.40;;
5890;SDS011;2971;52.420;7.080;2023-04-24T00:03:55;5.63;;;5.23;;
5890;SDS011;2971;52.420;7.080;2023-04-24T00:06:25;5.60;;;5.20;;
5890;SDS011;2971;52.420;7.080;2023-04-24T00:08:58;6.00;;;5.60;;
5890;SDS011;2971;52.420;7.080;2023-04-24T00:11:25;5.90;;;5.40;;
5890;SDS011;2971;52.420;7.080;2023-04-24T00:13:51;5.83;;;5.43;;
5890;SDS011;2971;52.420;7.080;2023-04-24T00:16:16;5.67;;;5.27;;
5890;SDS011;2971;52.420;7.080;2023-04-24T00:18:41;6.30;;;5.80;;
5890;SDS011;2971;52.420;7.080;2023-04-24T00:21:07;5.93;;;5.43;;
5890;SDS011;2971;52.420;7.080;2023-04-24T00:23:32;5.70;;;5.30;;
5890;SDS011;2971;52.420;7.080;2023-04-24T00:25:58;6.10;;;5.60;;
5890;SDS011;2971;52.420;7.080;2023-04-24T00:28:25;7.50;;;5.57;;
5890;SDS011;2971;52.420;7.080;2023-04-24T00:30:51;5.87;;;5.37;;
5890;SDS011;2971;52.420;7.080;2023-04-24T00:33:16;5.90;;;5.50;;
5890;SDS011;2971;52.420;7.080;2023-04-24T00:35:41;6.13;;;5.70;;
5890;SDS011;2971;52.420;7.080;2023-04-24T00:38:07;6.30;;;5.80;;
5890;SDS011;2971;52.420;7.080;2023-04-24T00:40:32;6.70;;;6.20;;
5890;SDS011;2971;52.420;7.080;2023-04-24T00:42:58;6.50;;;6.00;;
5890;SDS011;2971;52.420;7.080;2023-04-24T00:45:23;6.00;;;5.60;;
5890;SDS011;2971;52.420;7.080;2023-04-24T00:47:49;5.73;;;5.33;;
5890;SDS011;2971;52.420;7.080;2023-04-24T00:50:17;6.23;;;5.80;;
5890;SDS011;2971;52.420;7.080;2023-04-24T00:52:43;6.30;;;5.80;;
5890;SDS011;2971;52.420;7.080;2023-04-24T00:55:08;6.33;;;5.90;;
5890;SDS011;2971;52.420;7.080;2023-04-24T00:57:34;6.47;;;5.87;;
5890;SDS011;2971;52.420;7.080;2023-04-24T01:00:00;6.57;;;6.07;;
5890;SDS011;2971;52.420;7.080;2023-04-24T01:02:26;7.20;;;6.63;;
5890;SDS011;2971;52.420;7.080;2023-04-24T01:04:51;7.57;;;6.93;;
5890;SDS011;2971;52.420;7.080;2023-04-24T01:07:20;6.87;;;6.27;;
5890;SDS011;2971;52.420;7.080;2023-04-24T01:09:46;7.50;;;6.90;;
5890;SDS011;2971;52.420;7.080;2023-04-24T01:12:14;7.93;;;7.33;;
5890;SDS011;2971;52.420;7.080;2023-04-24T01:14:40;8.20;;;7.60;;
5890;SDS011;2971;52.420;7.080;2023-04-24T01:17:06;8.77;;;8.07;;
5890;SDS011;2971;52.420;7.080;2023-04-24T01:19:32;9.50;;;8.80;;
5890;SDS011;2971;52.420;7.080;2023-04-24T01:21:58;9.67;;;8.87;;
5890;SDS011;2971;52.420;7.080;2023-04-24T01:24:23;10.10;;;9.30;;
5890;SDS011;2971;52.420;7.080;2023-04-24T01:26:49;10.93;;;10.03;;
5890;SDS011;2971;52.420;7.080;2023-04-24T01:29:15;10.60;;;9.70;;
5890;SDS011;2971;52.420;7.080;2023-04-24T01:31:40;10.90;;;10.00;;
5890;SDS011;2971;52.420;7.080;2023-04-24T01:34:07;11.63;;;10.73;;
5890;SDS011;2971;52.420;7.080;2023-04-24T01:36:33;12.23;;;11.20;;
5890;SDS011;2971;52.420;7.080;2023-04-24T01:39:00;12.33;;;11.33;;
5890;SDS011;2971;52.420;7.080;2023-04-24T01:41:25;12.93;;;11.93;;
5890;SDS011;2971;52.420;7.080;2023-04-24T01:43:51;13.97;;;12.77;;
5890;SDS011;2971;52.420;7.080;2023-04-24T01:46:17;16.10;;;14.50;;
5890;SDS011;2971;52.420;7.080;2023-04-24T01:48:42;15.30;;;14.10;;
5890;SDS011;2971;52.420;7.080;2023-04-24T01:51:07;17.30;;;15.90;;
5890;SDS011;2971;52.420;7.080;2023-04-24T01:53:33;17.70;;;16.20;;
5890;SDS011;2971;52.420;7.080;2023-04-24T01:55:58;16.27;;;14.87;;
5890;SDS011;2971;52.420;7.080;2023-04-24T01:58:24;16.77;;;15.37;;
5890;SDS011;2971;52.420;7.080;2023-04-24T02:00:49;16.70;;;15.40;;
5890;SDS011;2971;52.420;7.080;2023-04-24T02:03:19;15.87;;;14.47;;
5890;SDS011;2971;52.420;7.080;2023-04-24T02:05:46;15.87;;;14.23;;
5890;SDS011;2971;52.420;7.080;2023-04-24T02:08:12;14.27;;;13.17;;
5890;SDS011;2971;52.420;7.080;2023-04-24T02:10:37;13.63;;;12.47;;
5890;SDS011;2971;52.420;7.080;2023-04-24T02:13:03;13.13;;;12.07;;
5890;SDS011;2971;52.420;7.080;2023-04-24T02:15:29;13.23;;;12.10;;
5890;SDS011;2971;52.420;7.080;2023-04-24T02:17:55;13.10;;;12.10;;
5890;SDS011;2971;52.420;7.080;2023-04-24T02:20:20;13.47;;;12.37;;
5890;SDS011;2971;52.420;7.080;2023-04-24T02:22:46;13.60;;;12.50;;
5890;SDS011;2971;52.420;7.080;2023-04-24T02:25:11;13.53;;;12.37;;
5890;SDS011;2971;52.420;7.080;2023-04-24T02:27:36;14.33;;;13.13;;
5890;SDS011;2971;52.420;7.080;2023-04-24T02:30:02;14.37;;;13.13;;
5890;SDS011;2971;52.420;7.080;2023-04-24T02:32:28;14.23;;;13.03;;
5890;SDS011;2971;52.420;7.080;2023-04-24T02:34:53;14.47;;;13.27;;
5890;SDS011;2971;52.420;7.080;2023-04-24T02:37:19;14.20;;;13.00;;
5890;SDS011;2971;52.420;7.080;2023-04-24T02:39:44;14.40;;;13.17;;
5890;SDS011;2971;52.420;7.080;2023-04-24T02:42:09;13.47;;;12.27;;
5890;SDS011;2971;52.420;7.080;2023-04-24T02:44:35;13.93;;;12.80;;
5890;SDS011;2971;52.420;7.080;2023-04-24T02:47:00;13.70;;;12.57;;
5890;SDS011;2971;52.420;7.080;2023-04-24T02:49:26;14.07;;;12.83;;
5890;SDS011;2971;52.420;7.080;2023-04-24T02:51:52;13.97;;;12.83;;
5890;SDS011;2971;52.420;7.080;2023-04-24T02:54:17;14.67;;;13.47;;
5890;SDS011;2971;52.420;7.080;2023-04-24T02:56:42;15.03;;;13.67;;
5890;SDS011;2971;52.420;7.080;2023-04-24T02:59:08;16.23;;;14.83;;
5890;SDS011;2971;52.420;7.080;2023-04-24T03:01:33;17.00;;;15.23;;
5890;SDS011;2971;52.420;7.080;2023-04-24T03:03:59;17.40;;;15.90;;
5890;SDS011;2971;52.420;7.080;2023-04-24T03:06:26;17.83;;;16.23;;
5890;SDS011;2971;52.420;7.080;2023-04-24T03:08:52;18.97;;;17.37;;
5890;SDS011;2971;52.420;7.080;2023-04-24T03:11:17;20.63;;;18.73;;
5890;SDS011;2971;52.420;7.080;2023-04-24T03:13:43;20.80;;;19.00;;
5890;SDS011;2971;52.420;7.080;2023-04-24T03:16:08;21.80;;;19.93;;
5890;SDS011;2971;52.420;7.080;2023-04-24T03:18:33;22.47;;;20.47;;
5890;SDS011;2971;52.420;7.080;2023-04-24T03:20:59;21.23;;;19.43;;
5890;SDS011;2971;52.420;7.080;2023-04-24T03:23:25;22.23;;;20.33;;
5890;SDS011;2971;52.420;7.080;2023-04-24T03:25:51;23.03;;;20.63;;
5890;SDS011;2971;52.420;7.080;2023-04-24T03:28:16;23.33;;;21.33;;
5890;SDS011;2971;52.420;7.080;2023-04-24T03:30:42;24.27;;;21.97;;
5890;SDS011;2971;52.420;7.080;2023-04-24T03:33:07;23.07;;;20.77;;
5890;SDS011;2971;52.420;7.080;2023-04-24T03:35:33;23.33;;;21.07;;
5890;SDS011;2971;52.420;7.080;2023-04-24T03:37:58;23.73;;;21.47;;
5890;SDS011;2971;52.420;7.080;2023-04-24T03:40:24;24.13;;;21.73;;
5890;SDS011;2971;52.420;7.080;2023-04-24T03:42:49;24.40;;;22.20;;
5890;SDS011;2971;52.420;7.080;2023-04-24T03:45:14;24.90;;;22.50;;
5890;SDS011;2971;52.420;7.080;2023-04-24T03:47:40;24.33;;;22.00;;
5890;SDS011;2971;52.420;7.080;2023-04-24T03:50:06;24.97;;;22.50;;
5890;SDS011;2971;52.420;7.080;2023-04-24T03:52:31;25.87;;;23.47;;
5890;SDS011;2971;52.420;7.080;2023-04-24T03:54:57;25.97;;;23.43;;
5890;SDS011;2971;52.420;7.080;2023-04-24T03:57:22;25.73;;;23.17;;
5890;SDS011;2971;52.420;7.080;2023-04-24T03:59:48;25.80;;;23.30;;
5890;SDS011;2971;52.420;7.080;2023-04-24T04:02:13;25.40;;;22.83;;
5890;SDS011;2971;52.420;7.080;2023-04-24T04:04:38;25.77;;;23.17;;
5890;SDS011;2971;52.420;7.080;2023-04-24T04:07:04;25.83;;;23.43;;
5890;SDS011;2971;52.420;7.080;2023-04-24T04:09:30;26.53;;;23.93;;
5890;SDS011;2971;52.420;7.080;2023-04-24T04:11:56;25.83;;;23.13;;
5890;SDS011;2971;52.420;7.080;2023-04-24T04:14:21;24.53;;;22.27;;
5890;SDS011;2971;52.420;7.080;2023-04-24T04:16:47;25.07;;;22.67;;
5890;SDS011;2971;52.420;7.080;2023-04-24T04:19:12;24.17;;;21.87;;
5890;SDS011;2971;52.420;7.080;2023-04-24T04:21:38;24.80;;;22.47;;
5890;SDS011;2971;52.420;7.080;2023-04-24T04:24:03;24.37;;;22.13;;
5890;SDS011;2971;52.420;7.080;2023-04-24T04:26:30;22.93;;;20.63;;
5890;SDS011;2971;52.420;7.080;2023-04-24T04:28:57;22.60;;;20.53;;
5890;SDS011;2971;52.420;7.080;2023-04-24T04:31:23;23.80;;;21.63;;
5890;SDS011;2971;52.420;7.080;2023-04-24T04:33:49;24.17;;;21.77;;
5890;SDS011;2971;52.420;7.080;2023-04-24T04:36:15;25.10;;;22.70;;
5890;SDS011;2971;52.420;7.080;2023-04-24T04:38:42;25.47;;;22.83;;
5890;SDS011;2971;52.420;7.080;2023-04-24T04:41:08;25.27;;;22.87;;
5890;SDS011;2971;52.420;7.080;2023-04-24T04:43:33;27.47;;;24.70;;
5890;SDS011;2971;52.420;7.080;2023-04-24T04:45:59;27.63;;;24.83;;
5890;SDS011;2971;52.420;7.080;2023-04-24T04:48:26;28.03;;;25.33;;
5890;SDS011;2971;52.420;7.080;2023-04-24T04:50:52;28.30;;;25.50;;
5890;SDS011;2971;52.420;7.080;2023-04-24T04:53:17;26.67;;;24.07;;
5890;SDS011;2971;52.420;7.080;2023-04-24T04:55:43;26.73;;;24.27;;
5890;SDS011;2971;52.420;7.080;2023-04-24T04:58:08;28.27;;;25.67;;
5890;SDS011;2971;52.420;7.080;2023-04-24T05:00:33;27.77;;;25.17;;
5890;SDS011;2971;52.420;7.080;2023-04-24T05:03:02;28.23;;;25.63;;
5890;SDS011;2971;52.420;7.080;2023-04-24T05:05:28;27.83;;;25.07;;
5890;SDS011;2971;52.420;7.080;2023-04-24T05:07:53;28.53;;;25.83;;
5890;SDS011;2971;52.420;7.080;2023-04-24T05:10:19;28.90;;;26.23;;
5890;SDS011;2971;52.420;7.080;2023-04-24T05:12:44;29.07;;;26.33;;
5890;SDS011;2971;52.420;7.080;2023-04-24T05:15:10;28.77;;;26.03;;
5890;SDS011;2971;52.420;7.080;2023-04-24T05:17:35;31.00;;;28.13;;
5890;SDS011;2971;52.420;7.080;2023-04-24T05:20:01;30.43;;;27.67;;
5890;SDS011;2971;52.420;7.080;2023-04-24T05:22:30;31.77;;;28.63;;
5890;SDS011;2971;52.420;7.080;2023-04-24T05:24:56;29.80;;;27.07;;
5890;SDS011;2971;52.420;7.080;2023-04-24T05:27:21;30.43;;;27.63;;
5890;SDS011;2971;52.420;7.080;2023-04-24T05:29:46;29.67;;;27.07;;
5890;SDS011;2971;52.420;7.080;2023-04-24T05:32:12;31.03;;;28.33;;
5890;SDS011;2971;52.420;7.080;2023-04-24T05:34:37;29.50;;;26.77;;
5890;SDS011;2971;52.420;7.080;2023-04-24T05:37:03;29.73;;;26.83;;
5890;SDS011;2971;52.420;7.080;2023-04-24T05:39:33;28.53;;;26.00;;
5890;SDS011;2971;52.420;7.080;2023-04-24T05:41:58;28.27;;;25.63;;
5890;SDS011;2971;52.420;7.080;2023-04-24T05:44:24;27.93;;;25.37;;
5890;SDS011;2971;52.420;7.080;2023-04-24T05:46:50;26.90;;;24.50;;
5890;SDS011;2971;52.420;7.080;2023-04-24T05:49:16;26.93;;;24.37;;
5890;SDS011;2971;52.420;7.080;2023-04-24T05:51:41;26.70;;;24.13;;
5890;SDS011;2971;52.420;7.080;2023-04-24T05:54:07;26.90;;;24.43;;
5890;SDS011;2971;52.420;7.080;2023-04-24T05:56:32;26.03;;;23.57;;
5890;SDS011;2971;52.420;7.080;2023-04-24T05:58:58;26.57;;;24.17;;
5890;SDS011;2971;52.420;7.080;2023-04-24T06:01:23;26.07;;;23.67;;
5890;SDS011;2971;52.420;7.080;2023-04-24T06:03:50;27.10;;;24.60;;
5890;SDS011;2971;52.420;7.080;2023-04-24T06:06:15;25.03;;;22.73;;
5890;SDS011;2971;52.420;7.080;2023-04-24T06:08:41;26.07;;;23.70;;
5890;SDS011;2971;52.420;7.080;2023-04-24T06:11:07;25.90;;;23.33;;
5890;SDS011;2971;52.420;7.080;2023-04-24T06:13:32;25.13;;;22.83;;
5890;SDS011;2971;52.420;7.080;2023-04-24T06:15:58;23.93;;;21.70;;
5890;SDS011;2971;52.420;7.080;2023-04-24T06:18:23;24.43;;;22.17;;
5890;SDS011;2971;52.420;7.080;2023-04-24T06:20:49;22.67;;;20.73;;
5890;SDS011;2971;52.420;7.080;2023-04-24T06:23:14;22.33;;;20.37;;
5890;SDS011;2971;52.420;7.080;2023-04-24T06:25:40;21.83;;;19.93;;
5890;SDS011;2971;52.420;7.080;2023-04-24T06:28:05;23.27;;;20.97;;
5890;SDS011;2971;52.420;7.080;2023-04-24T06:30:31;22.10;;;20.10;;
5890;SDS011;2971;52.420;7.080;2023-04-24T06:32:56;21.83;;;19.83;;
5890;SDS011;2971;52.420;7.080;2023-04-24T06:35:22;21.20;;;19.33;;
5890;SDS011;2971;52.420;7.080;2023-04-24T06:37:47;21.40;;;19.40;;
5890;SDS011;2971;52.420;7.080;2023-04-24T06:40:13;22.00;;;20.00;;
5890;SDS011;2971;52.420;7.080;2023-04-24T06:42:39;22.00;;;20.03;;
5890;SDS011;2971;52.420;7.080;2023-04-24T06:45:04;21.27;;;19.27;;
5890;SDS011;2971;52.420;7.080;2023-04-24T06:47:30;21.50;;;19.60;;
5890;SDS011;2971;52.420;7.080;2023-04-24T06:49:56;21.00;;;19.10;;
5890;SDS011;2971;52.420;7.080;2023-04-24T06:52:22;21.43;;;19.43;;
5890;SDS011;2971;52.420;7.080;2023-04-24T06:54:47;20.97;;;18.97;;
5890;SDS011;2971;52.420;7.080;2023-04-24T06:57:12;21.53;;;19.60;;
5890;SDS011;2971;52.420;7.080;2023-04-24T06:59:38;21.43;;;19.53;;
5890;SDS011;2971;52.420;7.080;2023-04-24T07:02:03;21.30;;;19.40;;
5890;SDS011;2971;52.420;7.080;2023-04-24T07:04:29;21.83;;;19.93;;
5890;SDS011;2971;52.420;7.080;2023-04-24T07:06:55;22.83;;;20.60;;
5890;SDS011;2971;52.420;7.080;2023-04-24T07:09:21;22.90;;;20.50;;
5890;SDS011;2971;52.420;7.080;2023-04-24T07:11:48;21.70;;;19.77;;
5890;SDS011;2971;52.420;7.080;2023-04-24T07:14:14;22.37;;;20.17;;
5890;SDS011;2971;52.420;7.080;2023-04-24T07:16:40;23.67;;;21.47;;
5890;SDS011;2971;52.420;7.080;2023-04-24T07:19:05;22.53;;;20.33;;
5890;SDS011;2971;52.420;7.080;2023-04-24T07:21:31;22.50;;;20.27;;
5890;SDS011;2971;52.420;7.080;2023-04-24T07:23:57;22.70;;;20.53;;
5890;SDS011;2971;52.420;7.080;2023-04-24T07:26:23;21.03;;;19.23;;
5890;SDS011;2971;52.420;7.080;2023-04-24T07:28:48;22.27;;;20.17;;
5890;SDS011;2971;52.420;7.080;2023-04-24T07:31:13;21.83;;;19.83;;
5890;SDS011;2971;52.420;7.080;2023-04-24T07:33:39;21.70;;;19.60;;
5890;SDS011;2971;52.420;7.080;2023-04-24T07:36:05;22.70;;;20.53;;
5890;SDS011;2971;52.420;7.080;2023-04-24T07:38:30;22.20;;;20.10;;
5890;SDS011;2971;52.420;7.080;2023-04-24T07:40:56;22.50;;;20.30;;
5890;SDS011;2971;52.420;7.080;2023-04-24T07:43:21;21.77;;;19.70;;
5890;SDS011;2971;52.420;7.080;2023-04-24T07:45:48;23.13;;;20.83;;
5890;SDS011;2971;52.420;7.080;2023-04-24T07:48:15;22.73;;;20.40;;
5890;SDS011;2971;52.420;7.080;2023-04-24T07:50:41;23.50;;;21.30;;
5890;SDS011;2971;52.420;7.080;2023-04-24T07:53:07;23.70;;;21.37;;
5890;SDS011;2971;52.420;7.080;2023-04-24T07:55:32;24.03;;;21.80;;
5890;SDS011;2971;52.420;7.080;2023-04-24T07:57:58;24.20;;;21.73;;
5890;SDS011;2971;52.420;7.080;2023-04-24T08:00:23;25.07;;;22.57;;
5890;SDS011;2971;52.420;7.080;2023-04-24T08:02:49;24.47;;;22.13;;
5890;SDS011;2971;52.420;7.080;2023-04-24T08:05:14;24.23;;;21.83;;
5890;SDS011;2971;52.420;7.080;2023-04-24T08:07:40;23.70;;;21.40;;
5890;SDS011;2971;52.420;7.080;2023-04-24T08:10:09;24.30;;;22.00;;
5890;SDS011;2971;52.420;7.080;2023-04-24T08:12:38;24.73;;;22.43;;
5890;SDS011;2971;52.420;7.080;2023-04-24T08:15:04;24.40;;;22.03;;
5890;SDS011;2971;52.420;7.080;2023-04-24T08:17:30;25.03;;;22.63;;
5890;SDS011;2971;52.420;7.080;2023-04-24T08:19:56;24.43;;;22.23;;
5890;SDS011;2971;52.420;7.080;2023-04-24T08:22:26;25.13;;;22.93;;
5890;SDS011;2971;52.420;7.080;2023-04-24T08:24:52;18.27;;;16.57;;
5890;SDS011;2971;52.420;7.080;2023-04-24T08:27:18;18.90;;;17.20;;
5890;SDS011;2971;52.420;7.080;2023-04-24T08:29:44;18.70;;;16.90;;
5890;SDS011;2971;52.420;7.080;2023-04-24T08:32:09;18.67;;;16.90;;
5890;SDS011;2971;52.420;7.080;2023-04-24T08:34:35;19.60;;;17.80;;
5890;SDS011;2971;52.420;7.080;2023-04-24T08:37:00;19.17;;;17.53;;
5890;SDS011;2971;52.420;7.080;2023-04-24T08:39:25;21.10;;;19.10;;
5890;SDS011;2971;52.420;7.080;2023-04-24T08:41:51;20.50;;;18.60;;
5890;SDS011;2971;52.420;7.080;2023-04-24T08:44:17;20.17;;;18.17;;
5890;SDS011;2971;52.420;7.080;2023-04-24T08:46:44;17.03;;;15.30;;
5890;SDS011;2971;52.420;7.080;2023-04-24T08:49:13;16.30;;;14.70;;
5890;SDS011;2971;52.420;7.080;2023-04-24T08:51:39;14.30;;;12.80;;
5890;SDS011;2971;52.420;7.080;2023-04-24T08:54:04;16.80;;;15.20;;
5890;SDS011;2971;52.420;7.080;2023-04-24T08:56:31;16.37;;;14.77;;
5890;SDS011;2971;52.420;7.080;2023-04-24T08:58:58;15.33;;;13.67;;
5890;SDS011;2971;52.420;7.080;2023-04-24T09:01:24;14.93;;;13.43;;
5890;SDS011;2971;52.420;7.080;2023-04-24T09:03:50;14.77;;;13.37;;
5890;SDS011;2971;52.420;7.080;2023-04-24T09:06:17;13.80;;;12.40;;
5890;SDS011;2971;52.420;7.080;2023-04-24T09:08:43;12.67;;;11.47;;
5890;SDS011;2971;52.420;7.080;2023-04-24T09:11:09;12.93;;;11.63;;
5890;SDS011;2971;52.420;7.080;2023-04-24T09:13:35;12.63;;;11.50;;
5890;SDS011;2971;52.420;7.080;2023-04-24T09:16:00;11.83;;;10.73;;
5890;SDS011;2971;52.420;7.080;2023-04-24T09:18:26;11.33;;;10.23;;
5890;SDS011;2971;52.420;7.080;2023-04-24T09:20:57;10.97;;;9.73;;
5890;SDS011;2971;52.420;7.080;2023-04-24T09:23:30;10.97;;;9.97;;
5890;SDS011;2971;52.420;7.080;2023-04-24T09:25:56;11.07;;;10.07;;
5890;SDS011;2971;52.420;7.080;2023-04-24T09:28:29;9.93;;;8.93;;
5890;SDS011;2971;52.420;7.080;2023-04-24T09:31:11;10.70;;;8.73;;
5890;SDS011;2971;52.420;7.080;2023-04-24T09:33:38;9.40;;;8.60;;
5890;SDS011;2971;52.420;7.080;2023-04-24T09:36:04;9.57;;;8.70;;
5890;SDS011;2971;52.420;7.080;2023-04-24T09:38:39;8.57;;;7.73;;
5890;SDS011;2971;52.420;7.080;2023-04-24T09:41:06;7.40;;;6.70;;
5890;SDS011;2971;52.420;7.080;2023-04-24T09:43:32;6.60;;;6.00;;
5890;SDS011;2971;52.420;7.080;2023-04-24T09:46:00;9.63;;;8.63;;
5890;SDS011;2971;52.420;7.080;2023-04-24T09:48:33;10.40;;;9.33;;
5890;SDS011;2971;52.420;7.080;2023-04-24T09:51:03;12.00;;;10.80;;
5890;SDS011;2971;52.420;7.080;2023-04-24T09:53:29;12.13;;;10.83;;
5890;SDS011;2971;52.420;7.080;2023-04-24T09:55:56;15.10;;;13.50;;
5890;SDS011;2971;52.420;7.080;2023-04-24T09:58:28;16.77;;;15.10;;
5890;SDS011;2971;52.420;7.080;2023-04-24T10:00:54;20.50;;;18.33;;
5890;SDS011;2971;52.420;7.080;2023-04-24T10:03:23;25.63;;;20.67;;
5890;SDS011;2971;52.420;7.080;2023-04-24T10:05:49;24.23;;;21.10;;
5890;SDS011;2971;52.420;7.080;2023-04-24T10:08:16;22.77;;;20.40;;
5890;SDS011;2971;52.420;7.080;2023-04-24T10:10:42;24.90;;;21.83;;
5890;SDS011;2971;52.420;7.080;2023-04-24T10:13:09;23.30;;;20.07;;
5890;SDS011;2971;52.420;7.080;2023-04-24T10:15:35;26.50;;;20.00;;
5890;SDS011;2971;52.420;7.080;2023-04-24T10:18:01;25.70;;;20.63;;
5890;SDS011;2971;52.420;7.080;2023-04-24T10:20:30;25.23;;;21.97;;
5890;SDS011;2971;52.420;7.080;2023-04-24T10:22:56;26.67;;;22.40;;
5890;SDS011;2971;52.420;7.080;2023-04-24T10:25:23;27.93;;;23.17;;
5890;SDS011;2971;52.420;7.080;2023-04-24T10:27:53;27.63;;;22.57;;
5890;SDS011;2971;52.420;7.080;2023-04-24T10:30:22;25.33;;;22.77;;
5890;SDS011;2971;52.420;7.080;2023-04-24T10:32:48;25.63;;;22.83;;
5890;SDS011;2971;52.420;7.080;2023-04-24T10:35:14;24.90;;;22.30;;
5890;SDS011;2971;52.420;7.080;2023-04-24T10:37:43;22.47;;;20.07;;
5890;SDS011;2971;52.420;7.080;2023-04-24T10:40:11;21.80;;;19.50;;
5890;SDS011;2971;52.420;7.080;2023-04-24T10:42:40;22.30;;;20.00;;
5890;SDS011;2971;52.420;7.080;2023-04-24T10:45:16;23.90;;;19.97;;
5890;SDS011;2971;52.420;7.080;2023-04-24T10:47:43;22.80;;;19.83;;
5890;SDS011;2971;52.420;7.080;2023-04-24T10:50:18;22.40;;;18.97;;
5890;SDS011;2971;52.420;7.080;2023-04-24T10:52:47;21.30;;;17.90;;
5890;SDS011;2971;52.420;7.080;2023-04-24T10:55:13;20.77;;;16.70;;
5890;SDS011;2971;52.420;7.080;2023-04-24T10:57:40;20.17;;;16.47;;
5890;SDS011;2971;52.420;7.080;2023-04-24T11:00:26;20.60;;;15.53;;
5890;SDS011;2971;52.420;7.080;2023-04-24T11:02:52;20.57;;;15.90;;
5890;SDS011;2971;52.420;7.080;2023-04-24T11:05:18;19.00;;;15.17;;
5890;SDS011;2971;52.420;7.080;2023-04-24T11:10:39;15.63;;;13.60;;
5890;SDS011;2971;52.420;7.080;2023-04-24T11:13:14;12.90;;;10.77;;
5890;SDS011;2971;52.420;7.080;2023-04-24T11:15:43;12.03;;;10.43;;
5890;SDS011;2971;52.420;7.080;2023-04-24T11:18:12;11.40;;;8.20;;
5890;SDS011;2971;52.420;7.080;2023-04-24T11:20:42;11.73;;;7.63;;
5890;SDS011;2971;52.420;7.080;2023-04-24T11:23:08;13.23;;;6.43;;
5890;SDS011;2971;52.420;7.080;2023-04-24T11:25:35;14.03;;;6.63;;
5890;SDS011;2971;52.420;7.080;2023-04-24T11:28:04;11.83;;;7.60;;
5890;SDS011;2971;52.420;7.080;2023-04-24T11:30:30;11.40;;;7.03;;
5890;SDS011;2971;52.420;7.080;2023-04-24T11:33:01;13.50;;;7.67;;
5890;SDS011;2971;52.420;7.080;2023-04-24T11:35:27;14.53;;;6.50;;
5890;SDS011;2971;52.420;7.080;2023-04-24T11:37:55;11.37;;;6.57;;
5890;SDS011;2971;52.420;7.080;2023-04-24T11:40:21;12.23;;;6.83;;
5890;SDS011;2971;52.420;7.080;2023-04-24T11:42:51;15.73;;;7.13;;
5890;SDS011;2971;52.420;7.080;2023-04-24T11:45:18;14.10;;;6.93;;
5890;SDS011;2971;52.420;7.080;2023-04-24T11:47:46;12.27;;;6.57;;
5890;SDS011;2971;52.420;7.080;2023-04-24T11:50:12;10.73;;;6.90;;
5890;SDS011;2971;52.420;7.080;2023-04-24T11:52:48;11.90;;;7.03;;
5890;SDS011;2971;52.420;7.080;2023-04-24T11:57:41;13.43;;;7.03;;
5890;SDS011;2971;52.420;7.080;2023-04-24T12:00:14;14.80;;;7.53;;
5890;SDS011;2971;52.420;7.080;2023-04-24T12:02:44;15.07;;;7.50;;
5890;SDS011;2971;52.420;7.080;2023-04-24T12:05:19;13.83;;;7.50;;
5890;SDS011;2971;52.420;7.080;2023-04-24T12:07:47;11.87;;;7.10;;
5890;SDS011;2971;52.420;7.080;2023-04-24T12:10:13;16.70;;;7.43;;
5890;SDS011;2971;52.420;7.080;2023-04-24T12:12:39;13.10;;;6.90;;
5890;SDS011;2971;52.420;7.080;2023-04-24T12:15:08;11.17;;;5.70;;
5890;SDS011;2971;52.420;7.080;2023-04-24T12:17:34;12.47;;;5.67;;
5890;SDS011;2971;52.420;7.080;2023-04-24T12:20:02;14.10;;;5.50;;
5890;SDS011;2971;52.420;7.080;2023-04-24T12:22:45;10.87;;;5.30;;
5890;SDS011;2971;52.420;7.080;2023-04-24T12:25:18;11.33;;;4.83;;
5890;SDS011;2971;52.420;7.080;2023-04-24T12:27:45;9.37;;;5.10;;
5890;SDS011;2971;52.420;7.080;2023-04-24T12:30:12;12.13;;;5.33;;
5890;SDS011;2971;52.420;7.080;2023-04-24T12:32:43;15.20;;;6.10;;
5890;SDS011;2971;52.420;7.080;2023-04-24T12:35:09;9.47;;;5.17;;
5890;SDS011;2971;52.420;7.080;2023-04-24T12:37:35;11.17;;;4.93;;
5890;SDS011;2971;52.420;7.080;2023-04-24T12:40:05;10.57;;;4.37;;
5890;SDS011;2971;52.420;7.080;2023-04-24T12:42:32;8.87;;;4.80;;
5890;SDS011;2971;52.420;7.080;2023-04-24T12:44:58;9.33;;;4.70;;
5890;SDS011;2971;52.420;7.080;2023-04-24T12:47:25;8.40;;;4.40;;
5890;SDS011;2971;52.420;7.080;2023-04-24T12:49:54;8.03;;;4.10;;
5890;SDS011;2971;52.420;7.080;2023-04-24T12:52:23;6.47;;;3.93;;
5890;SDS011;2971;52.420;7.080;2023-04-24T12:54:50;7.53;;;3.87;;
5890;SDS011;2971;52.420;7.080;2023-04-24T12:57:16;8.87;;;4.30;;
5890;SDS011;2971;52.420;7.080;2023-04-24T12:59:42;9.03;;;4.30;;
5890;SDS011;2971;52.420;7.080;2023-04-24T13:02:08;8.57;;;4.00;;
5890;SDS011;2971;52.420;7.080;2023-04-24T13:04:35;7.87;;;3.80;;
5890;SDS011;2971;52.420;7.080;2023-04-24T13:07:00;10.93;;;4.30;;
5890;SDS011;2971;52.420;7.080;2023-04-24T13:09:26;8.30;;;4.00;;
5890;SDS011;2971;52.420;7.080;2023-04-24T13:11:51;9.40;;;3.97;;
5890;SDS011;2971;52.420;7.080;2023-04-24T13:14:16;7.23;;;3.43;;
5890;SDS011;2971;52.420;7.080;2023-04-24T13:16:42;9.47;;;3.93;;
5890;SDS011;2971;52.420;7.080;2023-04-24T13:19:07;6.03;;;3.03;;
5890;SDS011;2971;52.420;7.080;2023-04-24T13:21:32;6.87;;;3.00;;
5890;SDS011;2971;52.420;7.080;2023-04-24T13:23:58;6.87;;;2.13;;
5890;SDS011;2971;52.420;7.080;2023-04-24T13:26:23;3.50;;;2.10;;
5890;SDS011;2971;52.420;7.080;2023-04-24T13:28:50;3.50;;;1.93;;
5890;SDS011;2971;52.420;7.080;2023-04-24T13:31:15;5.50;;;2.00;;
5890;SDS011;2971;52.420;7.080;2023-04-24T13:33:41;3.67;;;2.00;;
5890;SDS011;2971;52.420;7.080;2023-04-24T13:36:07;4.23;;;1.97;;
5890;SDS011;2971;52.420;7.080;2023-04-24T13:38:32;4.90;;;2.00;;
5890;SDS011;2971;52.420;7.080;2023-04-24T13:40:58;5.10;;;2.40;;
5890;SDS011;2971;52.420;7.080;2023-04-24T13:43:23;4.60;;;2.40;;
5890;SDS011;2971;52.420;7.080;2023-04-24T13:45:49;4.27;;;2.53;;
5890;SDS011;2971;52.420;7.080;2023-04-24T13:48:14;6.13;;;2.50;;
5890;SDS011;2971;52.420;7.080;2023-04-24T13:50:40;4.10;;;2.30;;
5890;SDS011;2971;52.420;7.080;2023-04-24T13:53:07;5.40;;;2.57;;
5890;SDS011;2971;52.420;7.080;2023-04-24T13:55:32;6.37;;;2.73;;
5890;SDS011;2971;52.420;7.080;2023-04-24T13:57:57;5.90;;;2.50;;
5890;SDS011;2971;52.420;7.080;2023-04-24T14:00:24;6.30;;;3.17;;
5890;SDS011;2971;52.420;7.080;2023-04-24T14:02:50;5.23;;;3.20;;
5890;SDS011;2971;52.420;7.080;2023-04-24T14:05:15;8.37;;;3.57;;
5890;SDS011;2971;52.420;7.080;2023-04-24T14:07:41;5.90;;;3.30;;
5890;SDS011;2971;52.420;7.080;2023-04-24T14:10:06;8.27;;;3.20;;
5890;SDS011;2971;52.420;7.080;2023-04-24T14:12:33;5.83;;;2.90;;
5890;SDS011;2971;52.420;7.080;2023-04-24T14:14:58;5.67;;;3.03;;
5890;SDS011;2971;52.420;7.080;2023-04-24T14:17:24;5.50;;;3.53;;
5890;SDS011;2971;52.420;7.080;2023-04-24T14:19:49;5.90;;;2.40;;
5890;SDS011;2971;52.420;7.080;2023-04-24T14:22:16;4.40;;;2.57;;
5890;SDS011;2971;52.420;7.080;2023-04-24T14:24:43;7.33;;;3.17;;
5890;SDS011;2971;52.420;7.080;2023-04-24T14:27:12;6.13;;;2.80;;
5890;SDS011;2971;52.420;7.080;2023-04-24T14:29:37;5.10;;;2.50;;
5890;SDS011;2971;52.420;7.080;2023-04-24T14:32:03;3.93;;;2.40;;
5890;SDS011;2971;52.420;7.080;2023-04-24T14:34:28;5.47;;;2.20;;
5890;SDS011;2971;52.420;7.080;2023-04-24T14:36:53;4.83;;;2.30;;
5890;SDS011;2971;52.420;7.080;2023-04-24T14:39:19;4.47;;;2.30;;
5890;SDS011;2971;52.420;7.080;2023-04-24T14:41:45;5.57;;;2.47;;
5890;SDS011;2971;52.420;7.080;2023-04-24T14:44:10;3.80;;;1.87;;
5890;SDS011;2971;52.420;7.080;2023-04-24T14:46:36;5.30;;;2.30;;
5890;SDS011;2971;52.420;7.080;2023-04-24T14:49:01;4.77;;;2.40;;
5890;SDS011;2971;52.420;7.080;2023-04-24T14:51:27;6.27;;;2.37;;
5890;SDS011;2971;52.420;7.080;2023-04-24T14:53:52;5.87;;;2.43;;
5890;SDS011;2971;52.420;7.080;2023-04-24T14:56:18;4.87;;;2.50;;